Van Cleve, Iowa
Current Conditions -  °F | °C
As of 3:05 AM on Thursday 23 Oct 2014 (Local Time) from KMIW Reporting Station
Broken Clouds Broken Clouds  
Wind Chill: 52°   Ceiling: 4500
Heat Index: 52°   Visibility: 10mi
Dew Point: 42°   Wind: 9mph
Humidity: 69%   Direction: 140°SE
Pressure: 30.08"   Gusts: NA
Location:  41.9226°N, 93.0682°W
Report Text: KMIW 230805Z AUTO 14008KT 10SM SCT038 BKN045 BKN060 11/06 A3008 RMK AO2 T01110056
Loading
Personal Weather Stations






























Interactive Weather Map
Tropical Storm Tracking
New forecast layout! Learn more

10-Day Weather Forecast

Advertisements
Track Severe Weather on mobile